sensor_id;sensor_type;location;lat;lon;timestamp;pressure;altitude;pressure_sealevel;temperature;humidity
40502;BME280;29631;49.168;9.848;2022-08-24T00:00:15;96833.56;;;25.01;66.52
40502;BME280;29631;49.168;9.848;2022-08-24T00:02:41;96837.41;;;25.00;67.04
40502;BME280;29631;49.168;9.848;2022-08-24T00:05:08;96841.66;;;25.01;66.67
40502;BME280;29631;49.168;9.848;2022-08-24T00:07:35;96825.56;;;24.96;67.12
40502;BME280;29631;49.168;9.848;2022-08-24T00:10:02;96842.19;;;25.03;67.05
40502;BME280;29631;49.168;9.848;2022-08-24T00:12:29;96838.19;;;25.01;66.71
40502;BME280;29631;49.168;9.848;2022-08-24T00:14:55;96838.97;;;25.01;67.28
40502;BME280;29631;49.168;9.848;2022-08-24T00:17:21;96830.50;;;24.89;67.04
40502;BME280;29631;49.168;9.848;2022-08-24T00:19:47;96840.34;;;24.99;67.20
40502;BME280;29631;49.168;9.848;2022-08-24T00:22:13;96809.84;;;24.80;67.43
40502;BME280;29631;49.168;9.848;2022-08-24T00:24:39;96840.97;;;24.96;67.30
40502;BME280;29631;49.168;9.848;2022-08-24T00:27:06;96845.31;;;24.92;67.00
40502;BME280;29631;49.168;9.848;2022-08-24T00:29:33;96827.97;;;24.80;66.85
40502;BME280;29631;49.168;9.848;2022-08-24T00:31:58;96859.97;;;24.86;67.31
40502;BME280;29631;49.168;9.848;2022-08-24T00:34:24;96824.22;;;24.76;67.27
40502;BME280;29631;49.168;9.848;2022-08-24T00:36:52;96836.63;;;24.77;67.35
40502;BME280;29631;49.168;9.848;2022-08-24T00:39:19;96841.56;;;24.70;67.63
40502;BME280;29631;49.168;9.848;2022-08-24T00:41:47;96820.44;;;24.53;67.12
40502;BME280;29631;49.168;9.848;2022-08-24T00:44:15;96841.91;;;24.63;67.31
40502;BME280;29631;49.168;9.848;2022-08-24T00:46:58;96820.97;;;24.55;67.90
40502;BME280;29631;49.168;9.848;2022-08-24T00:49:27;96830.09;;;24.59;67.25
40502;BME280;29631;49.168;9.848;2022-08-24T00:52:39;96836.75;;;24.67;67.12
40502;BME280;29631;49.168;9.848;2022-08-24T00:55:19;96838.78;;;24.56;67.37
40502;BME280;29631;49.168;9.848;2022-08-24T00:57:50;96836.06;;;24.56;67.21
40502;BME280;29631;49.168;9.848;2022-08-24T01:00:25;96839.06;;;24.55;67.81
40502;BME280;29631;49.168;9.848;2022-08-24T01:02:57;96834.31;;;24.47;67.52
40502;BME280;29631;49.168;9.848;2022-08-24T01:05:26;96829.75;;;24.42;67.33
40502;BME280;29631;49.168;9.848;2022-08-24T01:07:51;96842.38;;;24.47;67.00
40502;BME280;29631;49.168;9.848;2022-08-24T01:10:23;96839.16;;;24.45;67.61
40502;BME280;29631;49.168;9.848;2022-08-24T01:12:53;96838.19;;;24.36;67.22
40502;BME280;29631;49.168;9.848;2022-08-24T01:15:20;96836.50;;;24.40;67.30
40502;BME280;29631;49.168;9.848;2022-08-24T01:17:48;96825.25;;;24.33;67.39
40502;BME280;29631;49.168;9.848;2022-08-24T01:20:33;96839.25;;;24.35;67.82
40502;BME280;29631;49.168;9.848;2022-08-24T01:23:05;96842.19;;;24.38;67.64
40502;BME280;29631;49.168;9.848;2022-08-24T01:25:35;96833.41;;;24.28;67.76
40502;BME280;29631;49.168;9.848;2022-08-24T01:28:15;96849.00;;;24.31;67.69
40502;BME280;29631;49.168;9.848;2022-08-24T01:30:43;96832.41;;;24.19;68.08
40502;BME280;29631;49.168;9.848;2022-08-24T01:33:13;96847.50;;;24.20;67.58
40502;BME280;29631;49.168;9.848;2022-08-24T01:35:45;96844.81;;;24.20;67.78
40502;BME280;29631;49.168;9.848;2022-08-24T01:38:11;96848.09;;;24.17;67.74
40502;BME280;29631;49.168;9.848;2022-08-24T01:40:47;96847.28;;;24.16;68.21
40502;BME280;29631;49.168;9.848;2022-08-24T01:43:15;96827.75;;;24.01;67.71
40502;BME280;29631;49.168;9.848;2022-08-24T01:45:42;96819.16;;;23.99;67.71
40502;BME280;29631;49.168;9.848;2022-08-24T01:48:09;96837.41;;;24.07;67.33
40502;BME280;29631;49.168;9.848;2022-08-24T01:50:34;96839.56;;;24.05;68.19
40502;BME280;29631;49.168;9.848;2022-08-24T01:53:03;96855.97;;;24.09;67.92
40502;BME280;29631;49.168;9.848;2022-08-24T01:55:30;96825.13;;;23.96;67.69
40502;BME280;29631;49.168;9.848;2022-08-24T01:57:58;96823.28;;;23.92;68.09
40502;BME280;29631;49.168;9.848;2022-08-24T02:00:24;96848.75;;;24.04;67.87
40502;BME280;29631;49.168;9.848;2022-08-24T02:02:50;96850.94;;;24.02;67.81
40502;BME280;29631;49.168;9.848;2022-08-24T02:05:16;96834.06;;;23.92;68.09
40502;BME280;29631;49.168;9.848;2022-08-24T02:07:42;96849.63;;;23.95;68.09
40502;BME280;29631;49.168;9.848;2022-08-24T02:10:11;96838.97;;;23.85;68.46
40502;BME280;29631;49.168;9.848;2022-08-24T02:12:40;96847.09;;;23.80;68.07
40502;BME280;29631;49.168;9.848;2022-08-24T02:15:07;96846.84;;;23.76;68.16
40502;BME280;29631;49.168;9.848;2022-08-24T02:17:35;96832.34;;;23.67;68.44
40502;BME280;29631;49.168;9.848;2022-08-24T02:20:03;96842.56;;;23.70;68.40
40502;BME280;29631;49.168;9.848;2022-08-24T02:22:29;96834.31;;;23.62;68.28
40502;BME280;29631;49.168;9.848;2022-08-24T02:24:55;96858.19;;;23.73;68.48
40502;BME280;29631;49.168;9.848;2022-08-24T02:27:20;96841.50;;;23.66;68.60
40502;BME280;29631;49.168;9.848;2022-08-24T02:29:46;96842.31;;;23.67;68.60
40502;BME280;29631;49.168;9.848;2022-08-24T02:32:12;96834.06;;;23.58;68.84
40502;BME280;29631;49.168;9.848;2022-08-24T02:34:39;96860.66;;;23.65;68.40
40502;BME280;29631;49.168;9.848;2022-08-24T02:37:04;96821.97;;;23.51;68.88
40502;BME280;29631;49.168;9.848;2022-08-24T02:39:31;96848.84;;;23.61;68.87
40502;BME280;29631;49.168;9.848;2022-08-24T02:41:56;96828.50;;;23.45;68.77
40502;BME280;29631;49.168;9.848;2022-08-24T02:44:22;96841.06;;;23.54;69.09
40502;BME280;29631;49.168;9.848;2022-08-24T02:46:48;96838.97;;;23.51;69.08
40502;BME280;29631;49.168;9.848;2022-08-24T02:49:14;96833.88;;;23.45;69.39
40502;BME280;29631;49.168;9.848;2022-08-24T02:51:45;96794.72;;;23.24;69.08
40502;BME280;29631;49.168;9.848;2022-08-24T02:54:14;96834.13;;;23.48;68.99
40502;BME280;29631;49.168;9.848;2022-08-24T02:56:42;96840.28;;;23.54;68.76
40502;BME280;29631;49.168;9.848;2022-08-24T02:59:08;96823.94;;;23.45;69.28
40502;BME280;29631;49.168;9.848;2022-08-24T03:01:34;96832.50;;;23.47;69.21
40502;BME280;29631;49.168;9.848;2022-08-24T03:03:59;96831.47;;;23.43;68.94
40502;BME280;29631;49.168;9.848;2022-08-24T03:06:25;96844.88;;;23.48;69.00
40502;BME280;29631;49.168;9.848;2022-08-24T03:08:51;96822.38;;;23.35;69.24
40502;BME280;29631;49.168;9.848;2022-08-24T03:11:17;96846.25;;;23.46;69.58
40502;BME280;29631;49.168;9.848;2022-08-24T03:13:42;96836.84;;;23.43;69.37
40502;BME280;29631;49.168;9.848;2022-08-24T03:16:08;96839.59;;;23.39;69.14
40502;BME280;29631;49.168;9.848;2022-08-24T03:18:34;96830.44;;;23.40;69.57
40502;BME280;29631;49.168;9.848;2022-08-24T03:21:01;96825.88;;;23.35;69.81
40502;BME280;29631;49.168;9.848;2022-08-24T03:23:28;96839.31;;;23.40;69.41
40502;BME280;29631;49.168;9.848;2022-08-24T03:25:54;96826.97;;;23.34;69.31
40502;BME280;29631;49.168;9.848;2022-08-24T03:28:22;96810.09;;;23.24;69.51
40502;BME280;29631;49.168;9.848;2022-08-24T03:30:48;96816.50;;;23.28;69.82
40502;BME280;29631;49.168;9.848;2022-08-24T03:33:15;96819.78;;;23.25;69.83
40502;BME280;29631;49.168;9.848;2022-08-24T03:35:41;96841.84;;;23.27;69.86
40502;BME280;29631;49.168;9.848;2022-08-24T03:38:07;96816.59;;;23.18;70.03
40502;BME280;29631;49.168;9.848;2022-08-24T03:40:33;96824.63;;;23.23;70.13
40502;BME280;29631;49.168;9.848;2022-08-24T03:43:00;96831.09;;;23.22;69.74
40502;BME280;29631;49.168;9.848;2022-08-24T03:45:27;96830.59;;;23.20;70.21
40502;BME280;29631;49.168;9.848;2022-08-24T03:47:53;96836.75;;;23.20;70.18
40502;BME280;29631;49.168;9.848;2022-08-24T03:50:20;96815.56;;;23.14;70.04
40502;BME280;29631;49.168;9.848;2022-08-24T03:52:47;96821.97;;;23.18;70.45
40502;BME280;29631;49.168;9.848;2022-08-24T03:55:13;96834.34;;;23.19;70.27
40502;BME280;29631;49.168;9.848;2022-08-24T03:57:39;96824.69;;;23.13;70.21
40502;BME280;29631;49.168;9.848;2022-08-24T04:00:08;96820.41;;;23.12;70.45
40502;BME280;29631;49.168;9.848;2022-08-24T04:02:34;96825.50;;;23.13;70.32
40502;BME280;29631;49.168;9.848;2022-08-24T04:05:00;96832.25;;;23.11;70.66
40502;BME280;29631;49.168;9.848;2022-08-24T04:07:26;96810.75;;;23.01;70.47
40502;BME280;29631;49.168;9.848;2022-08-24T04:09:52;96819.38;;;23.03;70.61
40502;BME280;29631;49.168;9.848;2022-08-24T04:12:18;96826.38;;;22.99;70.70
40502;BME280;29631;49.168;9.848;2022-08-24T04:14:43;96815.66;;;22.94;70.62
40502;BME280;29631;49.168;9.848;2022-08-24T04:17:09;96838.75;;;23.05;70.93
40502;BME280;29631;49.168;9.848;2022-08-24T04:19:37;96814.31;;;22.86;70.78
40502;BME280;29631;49.168;9.848;2022-08-24T04:22:03;96826.38;;;22.99;71.25
40502;BME280;29631;49.168;9.848;2022-08-24T04:24:29;96841.44;;;23.05;71.39
40502;BME280;29631;49.168;9.848;2022-08-24T04:26:56;96828.00;;;22.95;71.01
40502;BME280;29631;49.168;9.848;2022-08-24T04:29:21;96826.91;;;22.96;71.40
40502;BME280;29631;49.168;9.848;2022-08-24T04:31:47;96822.59;;;22.95;71.35
40502;BME280;29631;49.168;9.848;2022-08-24T04:34:15;96826.91;;;22.96;71.40
40502;BME280;29631;49.168;9.848;2022-08-24T04:36:42;96833.91;;;22.97;71.83
40502;BME280;29631;49.168;9.848;2022-08-24T04:39:09;96847.34;;;22.97;71.64
40502;BME280;29631;49.168;9.848;2022-08-24T04:41:35;96845.19;;;22.99;71.36
40502;BME280;29631;49.168;9.848;2022-08-24T04:44:02;96843.63;;;22.93;71.66
40502;BME280;29631;49.168;9.848;2022-08-24T04:46:28;96859.72;;;22.98;71.78
40502;BME280;29631;49.168;9.848;2022-08-24T04:48:54;96861.88;;;22.96;71.57
40502;BME280;29631;49.168;9.848;2022-08-24T04:51:21;96855.22;;;22.88;71.69
40502;BME280;29631;49.168;9.848;2022-08-24T04:53:48;96859.50;;;22.89;71.74
40502;BME280;29631;49.168;9.848;2022-08-24T04:56:20;96857.09;;;22.83;72.18
40502;BME280;29631;49.168;9.848;2022-08-24T04:58:49;96856.59;;;22.81;71.90
40502;BME280;29631;49.168;9.848;2022-08-24T05:01:20;96863.56;;;22.87;71.82
40502;BME280;29631;49.168;9.848;2022-08-24T05:03:47;96860.34;;;22.85;72.24
40502;BME280;29631;49.168;9.848;2022-08-24T05:06:16;96868.38;;;22.90;72.08
40502;BME280;29631;49.168;9.848;2022-08-24T05:08:43;96866.75;;;22.89;72.29
40502;BME280;29631;49.168;9.848;2022-08-24T05:11:11;96865.19;;;22.88;72.36
40502;BME280;29631;49.168;9.848;2022-08-24T05:13:39;96871.59;;;22.92;72.60
40502;BME280;29631;49.168;9.848;2022-08-24T05:16:12;96867.03;;;22.87;72.70
40502;BME280;29631;49.168;9.848;2022-08-24T05:18:40;96867.84;;;22.93;72.65
40502;BME280;29631;49.168;9.848;2022-08-24T05:21:12;96864.59;;;22.91;73.18
40502;BME280;29631;49.168;9.848;2022-08-24T05:23:39;96871.56;;;22.97;72.91
40502;BME280;29631;49.168;9.848;2022-08-24T05:26:13;96875.88;;;23.03;73.22
40502;BME280;29631;49.168;9.848;2022-08-24T05:28:40;96866.72;;;22.99;73.24
40502;BME280;29631;49.168;9.848;2022-08-24T05:31:15;96879.06;;;23.10;73.91
40502;BME280;29631;49.168;9.848;2022-08-24T05:33:42;96868.03;;;23.06;73.43
40502;BME280;29631;49.168;9.848;2022-08-24T05:36:22;96867.25;;;23.06;73.94
40502;BME280;29631;49.168;9.848;2022-08-24T05:38:51;96870.44;;;23.08;73.97
40502;BME280;29631;49.168;9.848;2022-08-24T05:41:18;96868.28;;;23.10;73.73
40502;BME280;29631;49.168;9.848;2022-08-24T05:43:44;96887.59;;;23.22;74.39
40502;BME280;29631;49.168;9.848;2022-08-24T05:46:10;96880.38;;;23.17;74.18
40502;BME280;29631;49.168;9.848;2022-08-24T05:48:36;96887.84;;;23.25;74.23
40502;BME280;29631;49.168;9.848;2022-08-24T05:51:04;96880.59;;;23.26;74.62
40502;BME280;29631;49.168;9.848;2022-08-24T05:53:31;96895.34;;;23.33;74.33
40502;BME280;29631;49.168;9.848;2022-08-24T05:55:56;96896.66;;;23.36;74.69
40502;BME280;29631;49.168;9.848;2022-08-24T05:58:22;96899.59;;;23.39;74.83
40502;BME280;29631;49.168;9.848;2022-08-24T06:00:48;96898.50;;;23.45;75.04
40502;BME280;29631;49.168;9.848;2022-08-24T06:03:15;96906.53;;;23.50;74.70
40502;BME280;29631;49.168;9.848;2022-08-24T06:05:43;96892.81;;;23.51;75.04
40502;BME280;29631;49.168;9.848;2022-08-24T06:08:09;96903.50;;;23.61;75.02
40502;BME280;29631;49.168;9.848;2022-08-24T06:10:45;96900.75;;;23.66;75.24
40502;BME280;29631;49.168;9.848;2022-08-24T06:13:13;96906.13;;;23.76;75.10
40502;BME280;29631;49.168;9.848;2022-08-24T06:15:40;96903.66;;;23.80;75.29
40502;BME280;29631;49.168;9.848;2022-08-24T06:18:07;96895.28;;;23.81;75.18
40502;BME280;29631;49.168;9.848;2022-08-24T06:20:39;96912.13;;;23.97;75.43
40502;BME280;29631;49.168;9.848;2022-08-24T06:23:06;96872.66;;;23.82;75.35
40502;BME280;29631;49.168;9.848;2022-08-24T06:25:32;96896.78;;;23.97;75.48
40502;BME280;29631;49.168;9.848;2022-08-24T06:28:17;96904.75;;;24.07;75.30
40502;BME280;29631;49.168;9.848;2022-08-24T06:30:43;96910.09;;;24.12;75.64
40502;BME280;29631;49.168;9.848;2022-08-24T06:33:09;96910.56;;;24.19;75.27
40502;BME280;29631;49.168;9.848;2022-08-24T06:35:35;96903.03;;;24.21;75.23
40502;BME280;29631;49.168;9.848;2022-08-24T06:38:00;96907.03;;;24.23;75.56
40502;BME280;29631;49.168;9.848;2022-08-24T06:40:26;96906.19;;;24.28;75.65
40502;BME280;29631;49.168;9.848;2022-08-24T06:42:53;96908.28;;;24.36;76.04
40502;BME280;29631;49.168;9.848;2022-08-24T06:45:19;96917.13;;;24.41;76.38
40502;BME280;29631;49.168;9.848;2022-08-24T06:47:46;96919.50;;;24.48;76.19
40502;BME280;29631;49.168;9.848;2022-08-24T06:50:12;96925.88;;;24.57;76.34
40502;BME280;29631;49.168;9.848;2022-08-24T06:52:38;96918.88;;;24.56;76.77
40502;BME280;29631;49.168;9.848;2022-08-24T06:55:05;96929.50;;;24.71;77.37
40502;BME280;29631;49.168;9.848;2022-08-24T06:57:31;96930.25;;;24.76;76.54
40502;BME280;29631;49.168;9.848;2022-08-24T06:59:57;96931.50;;;24.84;76.75
40502;BME280;29631;49.168;9.848;2022-08-24T07:02:23;96932.78;;;24.91;77.41
40502;BME280;29631;49.168;9.848;2022-08-24T07:04:49;96923.88;;;24.90;77.38
40502;BME280;29631;49.168;9.848;2022-08-24T07:07:16;96935.06;;;25.02;77.08
40502;BME280;29631;49.168;9.848;2022-08-24T07:09:41;96932.03;;;25.09;77.15
40502;BME280;29631;49.168;9.848;2022-08-24T07:12:07;96938.91;;;25.20;77.54
40502;BME280;29631;49.168;9.848;2022-08-24T07:14:33;96923.50;;;25.20;77.11
40502;BME280;29631;49.168;9.848;2022-08-24T07:16:59;96924.47;;;25.29;77.17
40502;BME280;29631;49.168;9.848;2022-08-24T07:19:25;96917.69;;;25.32;76.83
40502;BME280;29631;49.168;9.848;2022-08-24T07:21:57;96936.69;;;25.45;77.44
40502;BME280;29631;49.168;9.848;2022-08-24T07:24:24;96930.13;;;25.51;77.07
40502;BME280;29631;49.168;9.848;2022-08-24T07:26:50;96931.66;;;25.57;76.98
40502;BME280;29631;49.168;9.848;2022-08-24T07:29:17;96939.91;;;25.65;76.95
40502;BME280;29631;49.168;9.848;2022-08-24T07:31:43;96918.38;;;25.61;76.89
40502;BME280;29631;49.168;9.848;2022-08-24T07:34:10;96950.13;;;25.87;76.94
40502;BME280;29631;49.168;9.848;2022-08-24T07:36:38;96938.75;;;25.90;77.51
40502;BME280;29631;49.168;9.848;2022-08-24T07:39:06;96943.97;;;26.00;77.09
40502;BME280;29631;49.168;9.848;2022-08-24T07:41:39;96955.44;;;26.10;77.23
40502;BME280;29631;49.168;9.848;2022-08-24T07:44:05;96944.06;;;26.13;77.51
40502;BME280;29631;49.168;9.848;2022-08-24T07:46:31;96961.91;;;26.28;77.24
40502;BME280;29631;49.168;9.848;2022-08-24T07:48:57;96955.56;;;26.37;77.41
40502;BME280;29631;49.168;9.848;2022-08-24T07:51:23;96942.84;;;26.38;76.89
40502;BME280;29631;49.168;9.848;2022-08-24T07:53:49;96944.28;;;26.48;77.13
40502;BME280;29631;49.168;9.848;2022-08-24T07:56:15;96947.88;;;26.57;76.98
40502;BME280;29631;49.168;9.848;2022-08-24T07:58:41;96954.72;;;26.68;77.34
40502;BME280;29631;49.168;9.848;2022-08-24T08:01:06;96941.38;;;26.72;77.07
40502;BME280;29631;49.168;9.848;2022-08-24T08:03:34;96939.41;;;26.77;76.73
40502;BME280;29631;49.168;9.848;2022-08-24T08:06:06;96949.63;;;26.94;76.83
40502;BME280;29631;49.168;9.848;2022-08-24T08:08:35;96943.84;;;27.00;77.05
40502;BME280;29631;49.168;9.848;2022-08-24T08:11:01;96960.69;;;27.11;76.77
40502;BME280;29631;49.168;9.848;2022-08-24T08:13:29;96932.91;;;27.05;76.83
40502;BME280;29631;49.168;9.848;2022-08-24T08:15:56;96959.78;;;27.28;76.50
40502;BME280;29631;49.168;9.848;2022-08-24T08:18:22;96952.06;;;27.35;76.71
40502;BME280;29631;49.168;9.848;2022-08-24T08:20:48;96952.13;;;27.44;76.78
40502;BME280;29631;49.168;9.848;2022-08-24T08:23:15;96950.63;;;27.51;76.36
40502;BME280;29631;49.168;9.848;2022-08-24T08:25:59;96957.03;;;27.69;76.53
40502;BME280;29631;49.168;9.848;2022-08-24T08:28:28;96951.50;;;27.74;76.18
40502;BME280;29631;49.168;9.848;2022-08-24T08:31:03;96949.16;;;27.81;76.47
40502;BME280;29631;49.168;9.848;2022-08-24T08:33:30;96951.53;;;27.95;76.47
40502;BME280;29631;49.168;9.848;2022-08-24T08:36:13;96942.28;;;27.96;76.49
40502;BME280;29631;49.168;9.848;2022-08-24T08:38:41;96942.03;;;28.06;75.83
40502;BME280;29631;49.168;9.848;2022-08-24T08:43:51;96943.00;;;28.24;76.31
40502;BME280;29631;49.168;9.848;2022-08-24T08:47:15;96940.50;;;28.36;75.85
40502;BME280;29631;49.168;9.848;2022-08-24T08:50:19;96928.88;;;28.35;75.82
40502;BME280;29631;49.168;9.848;2022-08-24T08:56:34;96942.31;;;28.70;75.86
40502;BME280;29631;49.168;9.848;2022-08-24T08:59:36;96939.34;;;28.80;75.69
40502;BME280;29631;49.168;9.848;2022-08-24T09:08:43;96937.84;;;29.05;75.09
40502;BME280;29631;49.168;9.848;2022-08-24T09:17:22;96943.06;;;29.32;74.58
40502;BME280;29631;49.168;9.848;2022-08-24T09:22:47;96941.06;;;29.54;73.75
40502;BME280;29631;49.168;9.848;2022-08-24T09:25:31;96936.72;;;29.61;72.87
40502;BME280;29631;49.168;9.848;2022-08-24T09:28:13;96932.25;;;29.65;73.21
40502;BME280;29631;49.168;9.848;2022-08-24T09:30:55;96934.66;;;29.75;73.35
40502;BME280;29631;49.168;9.848;2022-08-24T09:36:32;96930.19;;;29.88;72.45
40502;BME280;29631;49.168;9.848;2022-08-24T09:45:14;96936.59;;;30.17;72.45
40502;BME280;29631;49.168;9.848;2022-08-24T09:54:07;96934.19;;;30.41;72.72
40502;BME280;29631;49.168;9.848;2022-08-24T09:56:55;96936.56;;;30.51;71.81
40502;BME280;29631;49.168;9.848;2022-08-24T10:00:00;96930.31;;;30.59;72.38
40502;BME280;29631;49.168;9.848;2022-08-24T10:14:18;96928.78;;;30.87;71.12
40502;BME280;29631;49.168;9.848;2022-08-24T10:32:13;96916.25;;;31.31;69.50
40502;BME280;29631;49.168;9.848;2022-08-24T10:34:56;96908.31;;;31.38;69.12
40502;BME280;29631;49.168;9.848;2022-08-24T10:40:36;96879.66;;;31.32;69.41
40502;BME280;29631;49.168;9.848;2022-08-24T10:43:31;96896.44;;;31.43;68.55
40502;BME280;29631;49.168;9.848;2022-08-24T10:46:38;96874.47;;;31.39;69.47
40502;BME280;29631;49.168;9.848;2022-08-24T10:55:18;96894.47;;;31.72;68.24
40502;BME280;29631;49.168;9.848;2022-08-24T11:00:30;96882.22;;;31.78;68.46
40502;BME280;29631;49.168;9.848;2022-08-24T11:03:16;96882.50;;;31.85;67.68
40502;BME280;29631;49.168;9.848;2022-08-24T11:05:55;96882.75;;;31.92;67.45
40502;BME280;29631;49.168;9.848;2022-08-24T11:08:27;96873.69;;;32.00;67.51
40502;BME280;29631;49.168;9.848;2022-08-24T11:11:12;96878.31;;;32.08;67.71
40502;BME280;29631;49.168;9.848;2022-08-24T11:14:01;96872.75;;;32.16;67.73
40502;BME280;29631;49.168;9.848;2022-08-24T11:16:37;96877.78;;;32.26;67.81
40502;BME280;29631;49.168;9.848;2022-08-24T11:19:09;96872.56;;;32.33;67.67
40502;BME280;29631;49.168;9.848;2022-08-24T11:21:49;96865.75;;;32.39;67.01
40502;BME280;29631;49.168;9.848;2022-08-24T11:37:40;96852.19;;;32.75;65.88
40502;BME280;29631;49.168;9.848;2022-08-24T11:40:08;96858.69;;;32.82;65.96
40502;BME280;29631;49.168;9.848;2022-08-24T11:42:42;96852.09;;;32.83;66.13
40502;BME280;29631;49.168;9.848;2022-08-24T11:48:50;96867.50;;;33.12;65.52
40502;BME280;29631;49.168;9.848;2022-08-24T11:51:45;96861.22;;;33.11;65.87
40502;BME280;29631;49.168;9.848;2022-08-24T11:54:39;96860.09;;;33.24;64.90
40502;BME280;29631;49.168;9.848;2022-08-24T11:57:15;96857.09;;;33.29;65.03
40502;BME280;29631;49.168;9.848;2022-08-24T12:00:06;96862.09;;;33.39;64.75
40502;BME280;29631;49.168;9.848;2022-08-24T12:05:52;96858.00;;;33.57;64.34
40502;BME280;29631;49.168;9.848;2022-08-24T12:12:00;96856.81;;;33.70;64.70
40502;BME280;29631;49.168;9.848;2022-08-24T12:15:04;96846.97;;;33.81;64.03
40502;BME280;29631;49.168;9.848;2022-08-24T12:20:47;96848.97;;;33.96;63.68
40502;BME280;29631;49.168;9.848;2022-08-24T12:23:44;96835.16;;;34.04;63.64
40502;BME280;29631;49.168;9.848;2022-08-24T12:26:26;96843.88;;;34.09;63.86
40502;BME280;29631;49.168;9.848;2022-08-24T12:31:55;96847.28;;;34.18;63.65
40502;BME280;29631;49.168;9.848;2022-08-24T12:35:00;96849.06;;;34.26;63.57
40502;BME280;29631;49.168;9.848;2022-08-24T12:37:45;96836.72;;;34.32;63.64
40502;BME280;29631;49.168;9.848;2022-08-24T12:40:37;96838.31;;;34.33;63.06
40502;BME280;29631;49.168;9.848;2022-08-24T12:43:34;96848.44;;;34.33;63.02
40502;BME280;29631;49.168;9.848;2022-08-24T12:46:03;96833.31;;;34.23;63.41
40502;BME280;29631;49.168;9.848;2022-08-24T13:00:40;96823.97;;;34.24;62.43
40502;BME280;29631;49.168;9.848;2022-08-24T13:03:43;96821.88;;;34.33;62.86
40502;BME280;29631;49.168;9.848;2022-08-24T13:06:19;96823.47;;;34.34;62.69
40502;BME280;29631;49.168;9.848;2022-08-24T13:08:50;96834.56;;;34.41;62.60
40502;BME280;29631;49.168;9.848;2022-08-24T13:29:42;96810.06;;;34.60;61.65
40502;BME280;29631;49.168;9.848;2022-08-24T13:32:54;96825.00;;;34.63;62.33
40502;BME280;29631;49.168;9.848;2022-08-24T13:41:25;96817.84;;;34.58;61.68
40502;BME280;29631;49.168;9.848;2022-08-24T13:44:21;96816.69;;;34.59;62.00
40502;BME280;29631;49.168;9.848;2022-08-24T13:47:21;96803.00;;;34.59;62.21
40502;BME280;29631;49.168;9.848;2022-08-24T14:09:17;96804.31;;;34.65;61.52
40502;BME280;29631;49.168;9.848;2022-08-24T14:24:07;96796.78;;;34.62;61.67
40502;BME280;29631;49.168;9.848;2022-08-24T14:42:18;96774.25;;;34.53;61.74
40502;BME280;29631;49.168;9.848;2022-08-24T14:45:07;96783.34;;;34.57;62.05
40502;BME280;29631;49.168;9.848;2022-08-24T15:00:21;96777.66;;;34.50;62.42
40502;BME280;29631;49.168;9.848;2022-08-24T15:07:58;96774.69;;;34.55;62.23
40502;BME280;29631;49.168;9.848;2022-08-24T15:10:49;96775.13;;;34.57;62.42
40502;BME280;29631;49.168;9.848;2022-08-24T15:16:44;96773.09;;;34.54;62.43
40502;BME280;29631;49.168;9.848;2022-08-24T15:24:44;96760.16;;;34.39;62.63
40502;BME280;29631;49.168;9.848;2022-08-24T15:27:39;96764.06;;;34.38;62.45
40502;BME280;29631;49.168;9.848;2022-08-24T15:30:31;96760.00;;;34.32;62.76
40502;BME280;29631;49.168;9.848;2022-08-24T15:33:15;96764.22;;;34.30;62.75
40502;BME280;29631;49.168;9.848;2022-08-24T15:35:49;96765.28;;;34.25;62.89
40502;BME280;29631;49.168;9.848;2022-08-24T15:38:23;96767.56;;;34.23;62.88
40502;BME280;29631;49.168;9.848;2022-08-24T15:41:17;96773.88;;;34.24;62.92
40502;BME280;29631;49.168;9.848;2022-08-24T15:44:02;96765.97;;;34.22;63.03
40502;BME280;29631;49.168;9.848;2022-08-24T15:46:42;96754.59;;;34.05;62.74
40502;BME280;29631;49.168;9.848;2022-08-24T15:49:25;96779.16;;;34.17;63.19
40502;BME280;29631;49.168;9.848;2022-08-24T15:52:01;96776.75;;;34.15;62.79
40502;BME280;29631;49.168;9.848;2022-08-24T16:10:41;96784.50;;;33.98;63.63
40502;BME280;29631;49.168;9.848;2022-08-24T16:13:28;96777.69;;;33.92;63.78
40502;BME280;29631;49.168;9.848;2022-08-24T16:16:08;96780.31;;;33.89;64.23
40502;BME280;29631;49.168;9.848;2022-08-24T16:18:53;96774.97;;;33.80;64.01
40502;BME280;29631;49.168;9.848;2022-08-24T16:21:41;96778.06;;;33.79;64.19
40502;BME280;29631;49.168;9.848;2022-08-24T16:24:35;96770.81;;;33.71;64.18
40502;BME280;29631;49.168;9.848;2022-08-24T16:27:12;96776.28;;;33.71;63.98
40502;BME280;29631;49.168;9.848;2022-08-24T16:32:29;96776.78;;;33.61;64.51
40502;BME280;29631;49.168;9.848;2022-08-24T16:37:35;96781.81;;;33.47;64.09
40502;BME280;29631;49.168;9.848;2022-08-24T16:40:02;96778.19;;;33.43;64.60
40502;BME280;29631;49.168;9.848;2022-08-24T16:42:29;96770.03;;;33.31;64.37
40502;BME280;29631;49.168;9.848;2022-08-24T16:44:57;96783.47;;;33.36;64.31
40502;BME280;29631;49.168;9.848;2022-08-24T16:47:26;96774.94;;;33.25;64.14
40502;BME280;29631;49.168;9.848;2022-08-24T16:49:52;96770.28;;;33.14;64.35
40502;BME280;29631;49.168;9.848;2022-08-24T16:52:19;96780.75;;;33.12;64.53
40502;BME280;29631;49.168;9.848;2022-08-24T16:54:47;96773.16;;;33.06;64.96
40502;BME280;29631;49.168;9.848;2022-08-24T16:57:19;96774.84;;;32.98;64.82
40502;BME280;29631;49.168;9.848;2022-08-24T16:59:47;96777.13;;;32.96;65.11
40502;BME280;29631;49.168;9.848;2022-08-24T17:02:14;96786.72;;;32.90;64.97
40502;BME280;29631;49.168;9.848;2022-08-24T17:04:41;96787.84;;;32.89;65.33
40502;BME280;29631;49.168;9.848;2022-08-24T17:07:10;96786.03;;;32.81;65.60
40502;BME280;29631;49.168;9.848;2022-08-24T17:09:39;96788.31;;;32.79;65.31
40502;BME280;29631;49.168;9.848;2022-08-24T17:12:06;96793.31;;;32.77;65.49
40502;BME280;29631;49.168;9.848;2022-08-24T17:14:34;96784.66;;;32.63;65.26
40502;BME280;29631;49.168;9.848;2022-08-24T17:17:03;96800.41;;;32.66;65.34
40502;BME280;29631;49.168;9.848;2022-08-24T17:19:30;96788.41;;;32.59;65.24
40502;BME280;29631;49.168;9.848;2022-08-24T17:21:57;96794.22;;;32.57;65.23